sensor_id;sensor_type;location;lat;lon;timestamp;temperature;humidity
46356;DHT22;32066;49.474;11.106;2023-10-09T00:00:13;16.00;98.70
46356;DHT22;32066;49.474;11.106;2023-10-09T00:03:16;16.00;98.50
46356;DHT22;32066;49.474;11.106;2023-10-09T00:05:48;16.00;98.50
46356;DHT22;32066;49.474;11.106;2023-10-09T00:08:19;15.90;98.60
46356;DHT22;32066;49.474;11.106;2023-10-09T00:11:00;15.90;98.70
46356;DHT22;32066;49.474;11.106;2023-10-09T00:13:39;15.90;98.70
46356;DHT22;32066;49.474;11.106;2023-10-09T00:16:15;15.90;98.70
46356;DHT22;32066;49.474;11.106;2023-10-09T00:18:49;16.00;98.70
46356;DHT22;32066;49.474;11.106;2023-10-09T00:21:20;16.00;98.70
46356;DHT22;32066;49.474;11.106;2023-10-09T00:23:53;15.90;98.70
46356;DHT22;32066;49.474;11.106;2023-10-09T00:26:27;15.90;98.70
46356;DHT22;32066;49.474;11.106;2023-10-09T00:28:57;15.90;98.80
46356;DHT22;32066;49.474;11.106;2023-10-09T00:31:31;15.90;98.80
46356;DHT22;32066;49.474;11.106;2023-10-09T00:33:59;15.80;98.80
46356;DHT22;32066;49.474;11.106;2023-10-09T00:36:45;15.80;98.90
46356;DHT22;32066;49.474;11.106;2023-10-09T00:39:20;15.80;99.00
46356;DHT22;32066;49.474;11.106;2023-10-09T00:42:11;15.70;99.00
46356;DHT22;32066;49.474;11.106;2023-10-09T00:44:53;15.80;99.00
46356;DHT22;32066;49.474;11.106;2023-10-09T00:47:22;15.70;99.10
46356;DHT22;32066;49.474;11.106;2023-10-09T00:49:55;15.80;99.10
46356;DHT22;32066;49.474;11.106;2023-10-09T00:52:37;15.80;99.10
46356;DHT22;32066;49.474;11.106;2023-10-09T00:55:11;15.70;99.10
46356;DHT22;32066;49.474;11.106;2023-10-09T00:57:51;15.70;99.10
46356;DHT22;32066;49.474;11.106;2023-10-09T01:00:23;15.80;99.10
46356;DHT22;32066;49.474;11.106;2023-10-09T01:02:59;15.80;99.10
46356;DHT22;32066;49.474;11.106;2023-10-09T01:05:45;15.80;99.20
46356;DHT22;32066;49.474;11.106;2023-10-09T01:08:19;15.80;99.20
46356;DHT22;32066;49.474;11.106;2023-10-09T01:10:56;15.80;99.20
46356;DHT22;32066;49.474;11.106;2023-10-09T01:13:37;15.70;99.20
46356;DHT22;32066;49.474;11.106;2023-10-09T01:16:19;15.70;99.30
46356;DHT22;32066;49.474;11.106;2023-10-09T01:18:49;15.70;99.30
46356;DHT22;32066;49.474;11.106;2023-10-09T01:21:18;15.70;99.30
46356;DHT22;32066;49.474;11.106;2023-10-09T01:23:53;15.70;99.30
46356;DHT22;32066;49.474;11.106;2023-10-09T01:26:35;15.70;99.40
46356;DHT22;32066;49.474;11.106;2023-10-09T01:29:10;15.70;99.30
46356;DHT22;32066;49.474;11.106;2023-10-09T01:31:40;15.70;99.50
46356;DHT22;32066;49.474;11.106;2023-10-09T01:34:12;15.70;99.40
46356;DHT22;32066;49.474;11.106;2023-10-09T01:36:43;15.70;99.40
46356;DHT22;32066;49.474;11.106;2023-10-09T01:39:17;15.60;99.60
46356;DHT22;32066;49.474;11.106;2023-10-09T01:41:53;15.60;99.60
46356;DHT22;32066;49.474;11.106;2023-10-09T01:44:27;15.70;99.60
46356;DHT22;32066;49.474;11.106;2023-10-09T01:47:00;15.70;99.50
46356;DHT22;32066;49.474;11.106;2023-10-09T01:49:33;15.70;99.70
46356;DHT22;32066;49.474;11.106;2023-10-09T01:52:03;15.70;99.60
46356;DHT22;32066;49.474;11.106;2023-10-09T01:54:38;15.70;99.60
46356;DHT22;32066;49.474;11.106;2023-10-09T01:57:08;15.70;99.60
46356;DHT22;32066;49.474;11.106;2023-10-09T01:59:42;15.60;99.70
46356;DHT22;32066;49.474;11.106;2023-10-09T02:02:14;15.70;99.70
46356;DHT22;32066;49.474;11.106;2023-10-09T02:05:03;15.60;99.80
46356;DHT22;32066;49.474;11.106;2023-10-09T02:07:49;15.70;99.80
46356;DHT22;32066;49.474;11.106;2023-10-09T02:10:23;15.70;99.80
46356;DHT22;32066;49.474;11.106;2023-10-09T02:13:04;15.70;99.70
46356;DHT22;32066;49.474;11.106;2023-10-09T02:15:36;15.60;99.70
46356;DHT22;32066;49.474;11.106;2023-10-09T02:18:17;15.70;99.80
46356;DHT22;32066;49.474;11.106;2023-10-09T02:20:58;15.70;99.90
46356;DHT22;32066;49.474;11.106;2023-10-09T02:23:38;15.70;99.80
46356;DHT22;32066;49.474;11.106;2023-10-09T02:26:15;15.70;99.90
46356;DHT22;32066;49.474;11.106;2023-10-09T02:28:51;15.60;99.80
46356;DHT22;32066;49.474;11.106;2023-10-09T02:31:24;15.70;99.80
46356;DHT22;32066;49.474;11.106;2023-10-09T02:34:01;15.70;99.80
46356;DHT22;32066;49.474;11.106;2023-10-09T02:36:30;15.70;99.90
46356;DHT22;32066;49.474;11.106;2023-10-09T02:39:00;15.70;99.90
46356;DHT22;32066;49.474;11.106;2023-10-09T02:41:34;15.60;99.90
46356;DHT22;32066;49.474;11.106;2023-10-09T02:44:15;15.60;99.90
46356;DHT22;32066;49.474;11.106;2023-10-09T02:46:50;15.60;99.90
46356;DHT22;32066;49.474;11.106;2023-10-09T02:49:23;15.60;99.90
46356;DHT22;32066;49.474;11.106;2023-10-09T02:51:52;15.60;99.90
46356;DHT22;32066;49.474;11.106;2023-10-09T02:54:21;15.60;99.90
46356;DHT22;32066;49.474;11.106;2023-10-09T02:57:04;15.60;99.90
46356;DHT22;32066;49.474;11.106;2023-10-09T02:59:47;15.60;99.90
46356;DHT22;32066;49.474;11.106;2023-10-09T03:02:17;15.60;99.90
46356;DHT22;32066;49.474;11.106;2023-10-09T03:04:48;15.60;99.90
46356;DHT22;32066;49.474;11.106;2023-10-09T03:07:21;15.60;99.90
46356;DHT22;32066;49.474;11.106;2023-10-09T03:09:49;15.70;99.90
46356;DHT22;32066;49.474;11.106;2023-10-09T03:12:21;15.60;99.90
46356;DHT22;32066;49.474;11.106;2023-10-09T03:14:53;15.60;99.90
46356;DHT22;32066;49.474;11.106;2023-10-09T03:17:28;15.60;99.90
46356;DHT22;32066;49.474;11.106;2023-10-09T03:20:03;15.60;99.90
46356;DHT22;32066;49.474;11.106;2023-10-09T03:22:38;15.50;99.90
46356;DHT22;32066;49.474;11.106;2023-10-09T03:25:08;15.50;99.90
46356;DHT22;32066;49.474;11.106;2023-10-09T03:27:43;15.50;99.90
46356;DHT22;32066;49.474;11.106;2023-10-09T03:30:14;15.60;99.90
46356;DHT22;32066;49.474;11.106;2023-10-09T03:32:48;15.60;99.90
46356;DHT22;32066;49.474;11.106;2023-10-09T03:35:17;15.50;99.90
46356;DHT22;32066;49.474;11.106;2023-10-09T03:37:52;15.50;99.90
46356;DHT22;32066;49.474;11.106;2023-10-09T03:40:23;15.50;99.90
46356;DHT22;32066;49.474;11.106;2023-10-09T03:42:55;15.50;99.90
46356;DHT22;32066;49.474;11.106;2023-10-09T03:45:25;15.60;99.90
46356;DHT22;32066;49.474;11.106;2023-10-09T03:47:56;15.60;99.90
46356;DHT22;32066;49.474;11.106;2023-10-09T03:50:28;15.60;99.90
46356;DHT22;32066;49.474;11.106;2023-10-09T03:53:04;15.60;99.90
46356;DHT22;32066;49.474;11.106;2023-10-09T03:55:39;15.60;99.90
46356;DHT22;32066;49.474;11.106;2023-10-09T03:58:10;15.60;99.90
46356;DHT22;32066;49.474;11.106;2023-10-09T04:00:40;15.50;99.90
46356;DHT22;32066;49.474;11.106;2023-10-09T04:03:15;15.50;99.90
46356;DHT22;32066;49.474;11.106;2023-10-09T04:05:46;15.50;99.90
46356;DHT22;32066;49.474;11.106;2023-10-09T04:08:17;15.50;99.90
46356;DHT22;32066;49.474;11.106;2023-10-09T04:10:54;15.50;99.90
46356;DHT22;32066;49.474;11.106;2023-10-09T04:13:31;15.40;99.90
46356;DHT22;32066;49.474;11.106;2023-10-09T04:16:02;15.50;99.90
46356;DHT22;32066;49.474;11.106;2023-10-09T04:18:36;15.50;99.90
46356;DHT22;32066;49.474;11.106;2023-10-09T04:21:10;15.40;99.90
46356;DHT22;32066;49.474;11.106;2023-10-09T04:23:45;15.40;99.90
46356;DHT22;32066;49.474;11.106;2023-10-09T04:26:36;15.40;99.90
46356;DHT22;32066;49.474;11.106;2023-10-09T04:29:05;15.30;99.90
46356;DHT22;32066;49.474;11.106;2023-10-09T04:31:36;15.30;99.90
46356;DHT22;32066;49.474;11.106;2023-10-09T04:34:05;15.30;99.90
46356;DHT22;32066;49.474;11.106;2023-10-09T04:36:46;15.20;99.90
46356;DHT22;32066;49.474;11.106;2023-10-09T04:39:16;15.30;99.90
46356;DHT22;32066;49.474;11.106;2023-10-09T04:42:03;15.30;99.90
46356;DHT22;32066;49.474;11.106;2023-10-09T04:44:48;15.20;99.90
46356;DHT22;32066;49.474;11.106;2023-10-09T04:47:41;15.20;99.90
46356;DHT22;32066;49.474;11.106;2023-10-09T04:50:15;15.20;99.90
46356;DHT22;32066;49.474;11.106;2023-10-09T04:52:56;15.10;99.90
46356;DHT22;32066;49.474;11.106;2023-10-09T04:55:45;15.00;99.90
46356;DHT22;32066;49.474;11.106;2023-10-09T04:58:24;15.10;99.90
46356;DHT22;32066;49.474;11.106;2023-10-09T05:00:56;15.10;99.90
46356;DHT22;32066;49.474;11.106;2023-10-09T05:03:39;15.00;99.90
46356;DHT22;32066;49.474;11.106;2023-10-09T05:06:22;15.00;99.90
46356;DHT22;32066;49.474;11.106;2023-10-09T05:09:21;14.90;99.90
46356;DHT22;32066;49.474;11.106;2023-10-09T05:11:47;14.90;99.90
46356;DHT22;32066;49.474;11.106;2023-10-09T05:14:35;14.80;99.90
46356;DHT22;32066;49.474;11.106;2023-10-09T05:17:15;14.80;99.90
46356;DHT22;32066;49.474;11.106;2023-10-09T05:19:51;14.80;99.90
46356;DHT22;32066;49.474;11.106;2023-10-09T05:22:46;14.90;99.90
46356;DHT22;32066;49.474;11.106;2023-10-09T05:25:40;14.90;99.90
46356;DHT22;32066;49.474;11.106;2023-10-09T05:28:21;15.00;99.90
46356;DHT22;32066;49.474;11.106;2023-10-09T05:30:56;14.90;99.90
46356;DHT22;32066;49.474;11.106;2023-10-09T05:33:35;14.90;99.90
46356;DHT22;32066;49.474;11.106;2023-10-09T05:36:06;14.90;99.90
46356;DHT22;32066;49.474;11.106;2023-10-09T05:38:56;14.80;99.90
46356;DHT22;32066;49.474;11.106;2023-10-09T05:41:44;14.80;99.90
46356;DHT22;32066;49.474;11.106;2023-10-09T05:44:18;14.80;99.90
46356;DHT22;32066;49.474;11.106;2023-10-09T05:47:00;14.70;99.90
46356;DHT22;32066;49.474;11.106;2023-10-09T05:49:43;14.70;99.90
46356;DHT22;32066;49.474;11.106;2023-10-09T05:52:21;14.70;99.90
46356;DHT22;32066;49.474;11.106;2023-10-09T05:54:58;14.70;99.90
46356;DHT22;32066;49.474;11.106;2023-10-09T05:57:39;14.60;99.90
46356;DHT22;32066;49.474;11.106;2023-10-09T06:00:26;14.50;99.90
46356;DHT22;32066;49.474;11.106;2023-10-09T06:03:07;14.60;99.90
46356;DHT22;32066;49.474;11.106;2023-10-09T06:05:55;14.60;99.90
46356;DHT22;32066;49.474;11.106;2023-10-09T06:08:32;14.60;99.90
46356;DHT22;32066;49.474;11.106;2023-10-09T06:11:35;14.70;99.90
46356;DHT22;32066;49.474;11.106;2023-10-09T06:14:04;14.70;99.90
46356;DHT22;32066;49.474;11.106;2023-10-09T06:16:39;14.70;99.90
46356;DHT22;32066;49.474;11.106;2023-10-09T06:19:07;14.70;99.90
46356;DHT22;32066;49.474;11.106;2023-10-09T06:21:55;14.80;99.90
46356;DHT22;32066;49.474;11.106;2023-10-09T06:25:06;14.70;99.90
46356;DHT22;32066;49.474;11.106;2023-10-09T06:27:38;14.80;99.90
46356;DHT22;32066;49.474;11.106;2023-10-09T06:30:19;14.90;99.90
46356;DHT22;32066;49.474;11.106;2023-10-09T06:32:53;14.90;99.90
46356;DHT22;32066;49.474;11.106;2023-10-09T06:35:34;14.90;99.90
46356;DHT22;32066;49.474;11.106;2023-10-09T06:38:07;14.90;99.90
46356;DHT22;32066;49.474;11.106;2023-10-09T06:40:48;14.90;99.90
46356;DHT22;32066;49.474;11.106;2023-10-09T06:43:29;14.90;99.90
46356;DHT22;32066;49.474;11.106;2023-10-09T06:46:02;15.00;99.90
46356;DHT22;32066;49.474;11.106;2023-10-09T06:48:46;14.90;99.90
46356;DHT22;32066;49.474;11.106;2023-10-09T06:51:25;14.90;99.90
46356;DHT22;32066;49.474;11.106;2023-10-09T06:54:09;14.90;99.90
46356;DHT22;32066;49.474;11.106;2023-10-09T06:56:41;15.00;99.90
46356;DHT22;32066;49.474;11.106;2023-10-09T06:59:22;15.10;99.90
46356;DHT22;32066;49.474;11.106;2023-10-09T07:02:07;15.20;99.90
46356;DHT22;32066;49.474;11.106;2023-10-09T07:04:48;15.20;99.90
46356;DHT22;32066;49.474;11.106;2023-10-09T07:07:21;15.30;99.90
46356;DHT22;32066;49.474;11.106;2023-10-09T07:09:53;15.30;99.90
46356;DHT22;32066;49.474;11.106;2023-10-09T07:12:49;15.40;99.90
46356;DHT22;32066;49.474;11.106;2023-10-09T07:15:20;15.50;99.90
46356;DHT22;32066;49.474;11.106;2023-10-09T07:18:01;15.50;99.90
46356;DHT22;32066;49.474;11.106;2023-10-09T07:20:44;15.60;99.90
46356;DHT22;32066;49.474;11.106;2023-10-09T07:23:25;15.70;99.90
46356;DHT22;32066;49.474;11.106;2023-10-09T07:26:05;15.70;99.90
46356;DHT22;32066;49.474;11.106;2023-10-09T07:29:03;15.80;99.90
46356;DHT22;32066;49.474;11.106;2023-10-09T07:31:48;15.90;99.90
46356;DHT22;32066;49.474;11.106;2023-10-09T07:34:23;16.10;99.90
46356;DHT22;32066;49.474;11.106;2023-10-09T07:37:19;16.20;99.80
46356;DHT22;32066;49.474;11.106;2023-10-09T07:39:49;16.30;99.60
46356;DHT22;32066;49.474;11.106;2023-10-09T07:42:25;16.40;99.40
46356;DHT22;32066;49.474;11.106;2023-10-09T07:45:10;16.50;99.10
46356;DHT22;32066;49.474;11.106;2023-10-09T07:48:00;16.60;98.60
46356;DHT22;32066;49.474;11.106;2023-10-09T07:50:28;16.70;98.20
46356;DHT22;32066;49.474;11.106;2023-10-09T07:53:04;16.70;98.30
46356;DHT22;32066;49.474;11.106;2023-10-09T07:55:44;16.90;98.20
46356;DHT22;32066;49.474;11.106;2023-10-09T07:58:23;17.00;98.00
46356;DHT22;32066;49.474;11.106;2023-10-09T08:00:53;17.00;97.80
46356;DHT22;32066;49.474;11.106;2023-10-09T08:03:49;17.10;97.60
46356;DHT22;32066;49.474;11.106;2023-10-09T08:06:24;17.20;97.30
46356;DHT22;32066;49.474;11.106;2023-10-09T08:09:11;17.30;97.20
46356;DHT22;32066;49.474;11.106;2023-10-09T08:12:04;17.30;97.30
46356;DHT22;32066;49.474;11.106;2023-10-09T08:14:43;17.30;97.10
46356;DHT22;32066;49.474;11.106;2023-10-09T08:17:14;17.30;96.80
46356;DHT22;32066;49.474;11.106;2023-10-09T08:19:42;17.40;96.90
46356;DHT22;32066;49.474;11.106;2023-10-09T08:22:24;17.40;96.80
46356;DHT22;32066;49.474;11.106;2023-10-09T08:25:06;17.50;96.70
46356;DHT22;32066;49.474;11.106;2023-10-09T08:27:52;17.60;96.40
46356;DHT22;32066;49.474;11.106;2023-10-09T08:30:27;17.70;96.10
46356;DHT22;32066;49.474;11.106;2023-10-09T08:33:09;17.70;96.00
46356;DHT22;32066;49.474;11.106;2023-10-09T08:35:51;17.80;95.40
46356;DHT22;32066;49.474;11.106;2023-10-09T08:38:21;17.80;94.90
46356;DHT22;32066;49.474;11.106;2023-10-09T08:40:52;17.90;94.80
46356;DHT22;32066;49.474;11.106;2023-10-09T08:43:24;17.90;94.90
46356;DHT22;32066;49.474;11.106;2023-10-09T08:46:00;18.00;94.70
46356;DHT22;32066;49.474;11.106;2023-10-09T08:48:30;18.10;94.50
46356;DHT22;32066;49.474;11.106;2023-10-09T08:50:59;18.10;94.40
46356;DHT22;32066;49.474;11.106;2023-10-09T08:53:32;18.20;93.90
46356;DHT22;32066;49.474;11.106;2023-10-09T08:56:00;18.20;94.10
46356;DHT22;32066;49.474;11.106;2023-10-09T08:58:29;18.30;94.10
46356;DHT22;32066;49.474;11.106;2023-10-09T09:01:05;18.30;94.10
46356;DHT22;32066;49.474;11.106;2023-10-09T09:03:41;18.40;93.90
46356;DHT22;32066;49.474;11.106;2023-10-09T09:06:10;18.40;93.30
46356;DHT22;32066;49.474;11.106;2023-10-09T09:08:40;18.50;93.50
46356;DHT22;32066;49.474;11.106;2023-10-09T09:11:11;18.50;93.50
46356;DHT22;32066;49.474;11.106;2023-10-09T09:13:43;18.50;93.50
46356;DHT22;32066;49.474;11.106;2023-10-09T09:16:19;18.70;93.80
46356;DHT22;32066;49.474;11.106;2023-10-09T09:18:53;18.80;93.40
46356;DHT22;32066;49.474;11.106;2023-10-09T09:21:29;18.90;93.00
46356;DHT22;32066;49.474;11.106;2023-10-09T09:24:04;18.90;93.10
46356;DHT22;32066;49.474;11.106;2023-10-09T09:26:42;19.00;93.10
46356;DHT22;32066;49.474;11.106;2023-10-09T09:29:24;19.00;93.20
46356;DHT22;32066;49.474;11.106;2023-10-09T09:32:09;19.00;93.10
46356;DHT22;32066;49.474;11.106;2023-10-09T09:34:46;19.10;93.10
46356;DHT22;32066;49.474;11.106;2023-10-09T09:37:19;19.00;93.00
46356;DHT22;32066;49.474;11.106;2023-10-09T09:39:47;19.00;93.20
46356;DHT22;32066;49.474;11.106;2023-10-09T09:42:18;19.00;93.60
46356;DHT22;32066;49.474;11.106;2023-10-09T09:44:51;19.00;94.00
46356;DHT22;32066;49.474;11.106;2023-10-09T09:47:23;19.00;94.30
46356;DHT22;32066;49.474;11.106;2023-10-09T09:49:53;19.00;94.50
46356;DHT22;32066;49.474;11.106;2023-10-09T09:52:28;19.00;94.70
46356;DHT22;32066;49.474;11.106;2023-10-09T09:55:06;19.00;94.90
46356;DHT22;32066;49.474;11.106;2023-10-09T09:57:40;19.00;95.10
46356;DHT22;32066;49.474;11.106;2023-10-09T10:00:12;19.00;95.20
46356;DHT22;32066;49.474;11.106;2023-10-09T10:03:01;19.00;95.30
46356;DHT22;32066;49.474;11.106;2023-10-09T10:05:34;19.00;95.60
46356;DHT22;32066;49.474;11.106;2023-10-09T10:08:04;19.00;96.00
46356;DHT22;32066;49.474;11.106;2023-10-09T10:10:39;19.00;96.20
46356;DHT22;32066;49.474;11.106;2023-10-09T10:13:13;19.00;96.20
46356;DHT22;32066;49.474;11.106;2023-10-09T10:16:04;19.00;96.40
46356;DHT22;32066;49.474;11.106;2023-10-09T10:18:58;19.00;96.30
46356;DHT22;32066;49.474;11.106;2023-10-09T10:21:47;19.00;96.50
46356;DHT22;32066;49.474;11.106;2023-10-09T10:24:42;19.10;96.60
46356;DHT22;32066;49.474;11.106;2023-10-09T10:27:21;19.10;96.80
46356;DHT22;32066;49.474;11.106;2023-10-09T10:30:26;19.10;96.80
46356;DHT22;32066;49.474;11.106;2023-10-09T10:32:58;19.10;96.80
46356;DHT22;32066;49.474;11.106;2023-10-09T10:35:37;19.10;96.90
46356;DHT22;32066;49.474;11.106;2023-10-09T10:38:29;19.10;96.80
46356;DHT22;32066;49.474;11.106;2023-10-09T10:41:12;19.20;96.90
46356;DHT22;32066;49.474;11.106;2023-10-09T10:43:42;19.20;96.70
46356;DHT22;32066;49.474;11.106;2023-10-09T10:46:25;19.20;96.50
46356;DHT22;32066;49.474;11.106;2023-10-09T10:49:00;19.20;96.70
46356;DHT22;32066;49.474;11.106;2023-10-09T10:51:43;19.20;96.90
46356;DHT22;32066;49.474;11.106;2023-10-09T10:54:26;19.20;97.00
46356;DHT22;32066;49.474;11.106;2023-10-09T10:57:18;19.30;96.90
46356;DHT22;32066;49.474;11.106;2023-10-09T10:59:56;19.30;96.30
46356;DHT22;32066;49.474;11.106;2023-10-09T11:02:43;19.30;96.40
46356;DHT22;32066;49.474;11.106;2023-10-09T11:05:09;19.30;96.30
46356;DHT22;32066;49.474;11.106;2023-10-09T11:07:57;19.30;96.00
46356;DHT22;32066;49.474;11.106;2023-10-09T11:10:26;19.30;95.90
46356;DHT22;32066;49.474;11.106;2023-10-09T11:12:57;19.30;95.10
46356;DHT22;32066;49.474;11.106;2023-10-09T11:15:39;19.30;94.70
46356;DHT22;32066;49.474;11.106;2023-10-09T11:18:22;19.30;94.70
46356;DHT22;32066;49.474;11.106;2023-10-09T11:20:54;19.30;94.40
46356;DHT22;32066;49.474;11.106;2023-10-09T11:23:47;19.30;94.40
46356;DHT22;32066;49.474;11.106;2023-10-09T11:26:24;19.40;94.40
46356;DHT22;32066;49.474;11.106;2023-10-09T11:29:15;19.40;94.20
46356;DHT22;32066;49.474;11.106;2023-10-09T11:31:59;19.50;94.10
46356;DHT22;32066;49.474;11.106;2023-10-09T11:34:30;19.50;93.90
46356;DHT22;32066;49.474;11.106;2023-10-09T11:37:01;19.40;94.00
46356;DHT22;32066;49.474;11.106;2023-10-09T11:39:34;19.40;94.00
46356;DHT22;32066;49.474;11.106;2023-10-09T11:42:02;19.30;93.80
46356;DHT22;32066;49.474;11.106;2023-10-09T11:44:39;19.30;93.90
46356;DHT22;32066;49.474;11.106;2023-10-09T11:47:06;19.20;94.20
46356;DHT22;32066;49.474;11.106;2023-10-09T11:49:48;19.20;94.30
46356;DHT22;32066;49.474;11.106;2023-10-09T11:52:22;19.30;94.30
46356;DHT22;32066;49.474;11.106;2023-10-09T11:55:07;19.40;94.30
46356;DHT22;32066;49.474;11.106;2023-10-09T11:57:40;19.40;94.20
46356;DHT22;32066;49.474;11.106;2023-10-09T12:00:08;19.40;94.10
46356;DHT22;32066;49.474;11.106;2023-10-09T12:02:54;19.40;93.90
46356;DHT22;32066;49.474;11.106;2023-10-09T12:05:33;19.40;94.10
46356;DHT22;32066;49.474;11.106;2023-10-09T12:08:04;19.30;94.20
46356;DHT22;32066;49.474;11.106;2023-10-09T12:10:37;19.30;94.50
46356;DHT22;32066;49.474;11.106;2023-10-09T12:13:06;19.10;94.70
46356;DHT22;32066;49.474;11.106;2023-10-09T12:15:35;19.10;94.70
46356;DHT22;32066;49.474;11.106;2023-10-09T12:18:07;19.10;94.80
46356;DHT22;32066;49.474;11.106;2023-10-09T12:20:43;19.10;95.10
46356;DHT22;32066;49.474;11.106;2023-10-09T12:23:17;19.10;95.20
46356;DHT22;32066;49.474;11.106;2023-10-09T12:25:49;19.10;95.30
46356;DHT22;32066;49.474;11.106;2023-10-09T12:28:22;19.10;95.40
46356;DHT22;32066;49.474;11.106;2023-10-09T12:30:51;19.20;95.50
46356;DHT22;32066;49.474;11.106;2023-10-09T12:33:20;19.10;95.40
46356;DHT22;32066;49.474;11.106;2023-10-09T12:35:53;19.20;95.60
46356;DHT22;32066;49.474;11.106;2023-10-09T12:38:25;19.10;95.50
46356;DHT22;32066;49.474;11.106;2023-10-09T12:41:03;19.20;95.50
46356;DHT22;32066;49.474;11.106;2023-10-09T12:43:45;19.20;95.70
46356;DHT22;32066;49.474;11.106;2023-10-09T12:46:13;19.30;95.60
46356;DHT22;32066;49.474;11.106;2023-10-09T12:48:43;19.30;94.90
46356;DHT22;32066;49.474;11.106;2023-10-09T12:51:13;19.30;94.80
46356;DHT22;32066;49.474;11.106;2023-10-09T12:53:43;19.30;94.50
46356;DHT22;32066;49.474;11.106;2023-10-09T12:56:17;19.40;94.40
46356;DHT22;32066;49.474;11.106;2023-10-09T12:58:47;19.40;94.20
46356;DHT22;32066;49.474;11.106;2023-10-09T13:01:22;19.50;93.90
46356;DHT22;32066;49.474;11.106;2023-10-09T13:03:51;19.50;93.30
46356;DHT22;32066;49.474;11.106;2023-10-09T13:06:19;19.50;93.40
46356;DHT22;32066;49.474;11.106;2023-10-09T13:08:50;19.50;93.40
46356;DHT22;32066;49.474;11.106;2023-10-09T13:11:21;19.40;93.40
46356;DHT22;32066;49.474;11.106;2023-10-09T13:13:51;19.50;93.30
46356;DHT22;32066;49.474;11.106;2023-10-09T13:16:21;19.50;92.60
46356;DHT22;32066;49.474;11.106;2023-10-09T13:18:52;19.40;92.60
46356;DHT22;32066;49.474;11.106;2023-10-09T13:21:23;19.50;92.60
46356;DHT22;32066;49.474;11.106;2023-10-09T13:23:52;19.50;92.80
46356;DHT22;32066;49.474;11.106;2023-10-09T13:26:26;19.50;92.20
46356;DHT22;32066;49.474;11.106;2023-10-09T13:28:57;19.60;92.10
46356;DHT22;32066;49.474;11.106;2023-10-09T13:31:27;19.60;91.60
46356;DHT22;32066;49.474;11.106;2023-10-09T13:33:58;19.60;91.40
46356;DHT22;32066;49.474;11.106;2023-10-09T13:36:32;19.60;91.60
46356;DHT22;32066;49.474;11.106;2023-10-09T13:39:02;19.60;91.00
46356;DHT22;32066;49.474;11.106;2023-10-09T13:41:50;19.60;90.50
46356;DHT22;32066;49.474;11.106;2023-10-09T13:44:24;19.70;90.10
46356;DHT22;32066;49.474;11.106;2023-10-09T13:46:54;19.70;89.60
46356;DHT22;32066;49.474;11.106;2023-10-09T13:49:23;19.70;89.60
46356;DHT22;32066;49.474;11.106;2023-10-09T13:51:55;19.70;89.30
46356;DHT22;32066;49.474;11.106;2023-10-09T13:54:24;19.80;89.20
46356;DHT22;32066;49.474;11.106;2023-10-09T13:57:07;19.80;89.20
46356;DHT22;32066;49.474;11.106;2023-10-09T13:59:36;19.80;88.10
46356;DHT22;32066;49.474;11.106;2023-10-09T14:02:08;19.90;87.00
46356;DHT22;32066;49.474;11.106;2023-10-09T14:04:42;19.90;86.90
46356;DHT22;32066;49.474;11.106;2023-10-09T14:07:11;19.90;85.90
46356;DHT22;32066;49.474;11.106;2023-10-09T14:09:42;19.90;85.80
46356;DHT22;32066;49.474;11.106;2023-10-09T14:12:23;19.90;84.10
46356;DHT22;32066;49.474;11.106;2023-10-09T14:14:55;20.00;84.70
46356;DHT22;32066;49.474;11.106;2023-10-09T14:17:26;20.00;84.00
46356;DHT22;32066;49.474;11.106;2023-10-09T14:19:56;20.00;83.50
46356;DHT22;32066;49.474;11.106;2023-10-09T14:22:45;20.00;84.50
46356;DHT22;32066;49.474;11.106;2023-10-09T14:25:18;20.10;83.20
46356;DHT22;32066;49.474;11.106;2023-10-09T14:27:49;20.10;83.30
46356;DHT22;32066;49.474;11.106;2023-10-09T14:30:18;20.00;83.50
46356;DHT22;32066;49.474;11.106;2023-10-09T14:32:56;20.00;84.70
46356;DHT22;32066;49.474;11.106;2023-10-09T14:35:27;20.00;84.40
46356;DHT22;32066;49.474;11.106;2023-10-09T14:37:56;20.00;84.90
46356;DHT22;32066;49.474;11.106;2023-10-09T14:40:27;20.00;83.30
46356;DHT22;32066;49.474;11.106;2023-10-09T14:43:00;20.00;83.30
46356;DHT22;32066;49.474;11.106;2023-10-09T14:45:29;19.90;81.80
46356;DHT22;32066;49.474;11.106;2023-10-09T14:47:57;19.90;81.20
46356;DHT22;32066;49.474;11.106;2023-10-09T14:50:27;19.90;81.10
46356;DHT22;32066;49.474;11.106;2023-10-09T14:52:55;19.90;80.80
46356;DHT22;32066;49.474;11.106;2023-10-09T14:55:26;19.90;80.90
46356;DHT22;32066;49.474;11.106;2023-10-09T14:58:00;19.90;80.80
46356;DHT22;32066;49.474;11.106;2023-10-09T15:00:29;19.90;80.50
46356;DHT22;32066;49.474;11.106;2023-10-09T15:02:59;19.90;81.30
46356;DHT22;32066;49.474;11.106;2023-10-09T15:05:29;19.90;80.90
46356;DHT22;32066;49.474;11.106;2023-10-09T15:07:59;19.90;80.60
46356;DHT22;32066;49.474;11.106;2023-10-09T15:10:29;19.90;81.10
46356;DHT22;32066;49.474;11.106;2023-10-09T15:13:01;19.90;81.10
46356;DHT22;32066;49.474;11.106;2023-10-09T15:15:30;19.90;81.70
46356;DHT22;32066;49.474;11.106;2023-10-09T15:17:58;19.90;82.40
46356;DHT22;32066;49.474;11.106;2023-10-09T15:20:28;19.90;82.90
46356;DHT22;32066;49.474;11.106;2023-10-09T15:22:57;19.90;84.10
46356;DHT22;32066;49.474;11.106;2023-10-09T15:25:27;19.80;84.80
46356;DHT22;32066;49.474;11.106;2023-10-09T15:27:55;19.80;85.60
46356;DHT22;32066;49.474;11.106;2023-10-09T15:30:27;19.80;85.80
46356;DHT22;32066;49.474;11.106;2023-10-09T15:32:57;19.90;86.20
46356;DHT22;32066;49.474;11.106;2023-10-09T15:35:27;19.90;86.60
46356;DHT22;32066;49.474;11.106;2023-10-09T15:37:59;19.90;87.10
46356;DHT22;32066;49.474;11.106;2023-10-09T15:40:29;19.90;87.50
46356;DHT22;32066;49.474;11.106;2023-10-09T15:43:00;19.80;87.80
46356;DHT22;32066;49.474;11.106;2023-10-09T15:45:41;19.90;88.10
46356;DHT22;32066;49.474;11.106;2023-10-09T15:48:10;19.90;88.80
46356;DHT22;32066;49.474;11.106;2023-10-09T15:50:44;19.90;88.90
46356;DHT22;32066;49.474;11.106;2023-10-09T15:53:14;19.90;89.30
46356;DHT22;32066;49.474;11.106;2023-10-09T15:55:44;19.80;89.80
46356;DHT22;32066;49.474;11.106;2023-10-09T15:58:17;19.80;89.90
46356;DHT22;32066;49.474;11.106;2023-10-09T16:00:48;19.80;89.70
46356;DHT22;32066;49.474;11.106;2023-10-09T16:03:17;19.80;89.70
46356;DHT22;32066;49.474;11.106;2023-10-09T16:05:46;19.70;89.80
46356;DHT22;32066;49.474;11.106;2023-10-09T16:08:15;19.80;90.00